createdAt,value
2019-05-23T00:02:16.192Z,1.37
2019-05-23T00:04:47.456Z,1.40
2019-05-23T00:07:18.631Z,1.50
2019-05-23T00:09:48.081Z,1.37
2019-05-23T00:12:35.330Z,1.60
2019-05-23T00:15:11.107Z,1.30
2019-05-23T00:17:40.639Z,1.60
2019-05-23T00:20:10.368Z,1.72
2019-05-23T00:22:40.763Z,1.43
2019-05-23T00:25:11.021Z,1.70
2019-05-23T00:27:43.237Z,1.67
2019-05-23T00:30:14.555Z,1.53
2019-05-23T00:32:47.830Z,1.80
2019-05-23T00:35:17.849Z,1.47
2019-05-23T00:37:47.455Z,1.87
2019-05-23T00:40:17.133Z,1.57
2019-05-23T00:42:46.160Z,1.40
2019-05-23T00:45:15.539Z,1.53
2019-05-23T00:47:45.067Z,1.53
2019-05-23T00:50:16.657Z,1.60
2019-05-23T00:52:46.230Z,1.70
2019-05-23T00:55:16.710Z,1.52
2019-05-23T00:57:46.693Z,1.67
2019-05-23T01:00:19.564Z,1.37
2019-05-23T01:02:50.092Z,1.10
2019-05-23T01:05:21.335Z,1.60
2019-05-23T01:07:50.742Z,1.40
2019-05-23T01:10:20.838Z,1.57
2019-05-23T01:12:50.261Z,1.23
2019-05-23T01:15:20.449Z,1.75
2019-05-23T01:17:50.302Z,1.70
2019-05-23T01:20:21.050Z,1.30
2019-05-23T01:22:51.134Z,1.60
2019-05-23T01:25:21.526Z,1.40
2019-05-23T01:27:51.472Z,1.40
2019-05-23T01:30:22.339Z,1.70
2019-05-23T01:32:52.861Z,1.10
2019-05-23T01:35:22.538Z,1.57
2019-05-23T01:37:52.782Z,1.13
2019-05-23T01:40:21.891Z,1.67
2019-05-23T01:42:51.703Z,1.40
2019-05-23T01:45:21.003Z,1.52
2019-05-23T01:47:50.507Z,1.43
2019-05-23T01:50:22.938Z,1.80
2019-05-23T01:52:53.107Z,1.50
2019-05-23T01:55:22.304Z,1.70
2019-05-23T01:57:51.607Z,1.47
2019-05-23T02:00:23.559Z,1.30
2019-05-23T02:02:52.562Z,1.60
2019-05-23T02:05:21.656Z,1.40
2019-05-23T02:07:50.968Z,1.77
2019-05-23T02:10:20.592Z,1.97
2019-05-23T02:12:49.869Z,1.63
2019-05-23T02:15:19.575Z,1.25
2019-05-23T02:17:49.315Z,1.57
2019-05-23T02:20:20.209Z,1.45
2019-05-23T02:22:49.314Z,1.37
2019-05-23T02:25:21.603Z,1.17
2019-05-23T02:27:51.087Z,1.40
2019-05-23T02:30:34.015Z,1.40
2019-05-23T02:32:53.021Z,1.60
2019-05-23T02:35:23.198Z,1.30
2019-05-23T02:37:59.465Z,1.70
2019-05-23T02:40:41.983Z,1.50
2019-05-23T02:43:21.724Z,1.30
2019-05-23T02:45:57.573Z,1.33
2019-05-23T02:48:42.854Z,1.90
2019-05-23T02:51:30.480Z,1.60
2019-05-23T02:54:02.166Z,1.73
2019-05-23T02:56:34.756Z,1.70
2019-05-23T02:59:26.133Z,1.80
2019-05-23T03:02:08.294Z,1.47
2019-05-23T03:04:37.231Z,1.70
2019-05-23T03:07:07.580Z,1.33
2019-05-23T03:09:37.061Z,1.70
2019-05-23T03:12:07.986Z,1.70
2019-05-23T03:14:38.122Z,1.60
2019-05-23T03:17:11.381Z,1.47
2019-05-23T03:19:53.818Z,1.80
2019-05-23T03:22:36.125Z,1.77
2019-05-23T03:25:09.552Z,1.60
2019-05-23T03:27:41.743Z,1.50
2019-05-23T03:30:16.217Z,1.40
2019-05-23T03:32:46.918Z,1.47
2019-05-23T03:35:36.120Z,2.03
2019-05-23T03:38:06.866Z,1.60
2019-05-23T03:40:37.747Z,1.30
2019-05-23T03:43:09.454Z,1.30
2019-05-23T03:45:40.397Z,1.80
2019-05-23T03:48:11.741Z,1.13
2019-05-23T03:50:41.749Z,1.50
2019-05-23T03:53:12.255Z,1.50
2019-05-23T03:55:42.780Z,1.40
2019-05-23T03:58:13.139Z,1.77
2019-05-23T04:00:43.563Z,1.60
2019-05-23T04:03:12.768Z,1.67
2019-05-23T04:05:41.649Z,1.60
2019-05-23T04:08:12.358Z,1.62
2019-05-23T04:10:41.485Z,1.80
2019-05-23T04:13:10.781Z,1.57
2019-05-23T04:15:39.673Z,1.60
2019-05-23T04:18:09.176Z,1.80
2019-05-23T04:20:38.176Z,1.50
2019-05-23T04:23:07.639Z,2.10
2019-05-23T04:25:36.775Z,1.80
2019-05-23T04:28:06.291Z,1.80
2019-05-23T04:30:35.170Z,1.97
2019-05-23T04:33:04.767Z,1.83
2019-05-23T04:35:33.978Z,1.70
2019-05-23T04:38:03.185Z,1.80
2019-05-23T04:40:32.988Z,1.37
2019-05-23T04:43:01.903Z,1.77
2019-05-23T04:45:31.796Z,1.47
2019-05-23T04:48:00.679Z,1.60
2019-05-23T04:50:30.360Z,1.67
2019-05-23T04:52:59.898Z,1.43
2019-05-23T04:55:28.790Z,1.30
2019-05-23T04:57:58.502Z,1.70
2019-05-23T05:00:28.010Z,1.87
2019-05-23T05:02:57.819Z,2.00
2019-05-23T05:05:26.912Z,1.62
2019-05-23T05:07:56.220Z,1.67
2019-05-23T05:10:26.642Z,1.87
2019-05-23T05:12:55.988Z,1.90
2019-05-23T05:15:25.142Z,1.40
2019-05-23T05:17:54.032Z,1.60
2019-05-23T05:20:23.334Z,1.60
2019-05-23T05:22:52.781Z,2.00
2019-05-23T05:25:21.935Z,1.73
2019-05-23T05:27:50.725Z,1.80
2019-05-23T05:30:20.027Z,2.03
2019-05-23T05:32:49.019Z,2.10
2019-05-23T05:35:18.102Z,1.90
2019-05-23T05:37:47.115Z,2.30
2019-05-23T05:40:17.638Z,2.23
2019-05-23T05:42:46.630Z,2.63
2019-05-23T05:45:16.312Z,2.53
2019-05-23T05:47:45.336Z,2.10
2019-05-23T05:50:14.931Z,2.50
2019-05-23T05:52:44.041Z,2.30
2019-05-23T05:55:14.265Z,2.37
2019-05-23T05:57:43.154Z,2.43
2019-05-23T06:00:17.232Z,2.10
2019-05-23T06:03:02.880Z,2.40
2019-05-23T06:05:34.610Z,2.33
2019-05-23T06:08:06.469Z,2.40
2019-05-23T06:10:35.976Z,2.10
2019-05-23T06:13:05.479Z,1.90
2019-05-23T06:15:35.435Z,2.23
2019-05-23T06:18:04.856Z,2.00
2019-05-23T06:20:34.967Z,1.90
2019-05-23T06:23:03.811Z,1.83
2019-05-23T06:25:32.795Z,2.57
2019-05-23T06:28:01.884Z,2.20
2019-05-23T06:30:32.901Z,2.23
2019-05-23T06:33:19.977Z,2.10
2019-05-23T06:35:35.103Z,2.23
2019-05-23T06:38:04.222Z,2.50
2019-05-23T06:40:33.312Z,4.47
2019-05-23T06:43:02.413Z,3.57
2019-05-23T06:45:31.713Z,3.80
2019-05-23T06:48:00.915Z,4.20
2019-05-23T06:50:30.931Z,4.17
2019-05-23T06:53:00.032Z,4.27
2019-05-23T06:55:28.920Z,4.17
2019-05-23T06:57:58.012Z,4.03
2019-05-23T07:00:28.500Z,3.43
2019-05-23T07:02:57.646Z,3.97
2019-05-23T07:05:32.546Z,4.03
2019-05-23T07:08:02.285Z,3.93
2019-05-23T07:10:31.196Z,3.77
2019-05-23T07:13:00.068Z,3.67
2019-05-23T07:15:29.856Z,4.33
2019-05-23T07:18:00.427Z,3.70
2019-05-23T07:20:29.402Z,3.53
2019-05-23T07:22:58.505Z,4.03
2019-05-23T07:25:27.825Z,3.72
2019-05-23T07:27:57.111Z,3.50
2019-05-23T07:30:26.808Z,3.50
2019-05-23T07:32:56.314Z,3.20
2019-05-23T07:35:26.300Z,3.60
2019-05-23T07:37:55.450Z,4.10
2019-05-23T07:40:28.131Z,3.70
2019-05-23T07:42:57.102Z,3.50
2019-05-23T07:45:27.529Z,4.20
2019-05-23T07:47:56.419Z,3.67
2019-05-23T07:50:25.524Z,3.07
2019-05-23T07:52:57.069Z,3.87
2019-05-23T07:55:30.276Z,3.70
2019-05-23T07:57:59.155Z,3.70
2019-05-23T08:00:29.841Z,3.33
2019-05-23T08:03:00.714Z,3.58
2019-05-23T08:05:29.617Z,3.20
2019-05-23T08:07:59.130Z,4.10
2019-05-23T08:10:33.863Z,3.00
2019-05-23T08:13:00.189Z,2.77
2019-05-23T08:15:29.772Z,3.20
2019-05-23T08:17:58.586Z,3.90
2019-05-23T08:20:28.194Z,3.50
2019-05-23T08:22:57.078Z,3.30
2019-05-23T08:25:25.966Z,3.45
2019-05-23T08:27:54.858Z,3.83
2019-05-23T08:30:23.952Z,3.50
2019-05-23T08:32:53.053Z,2.90
2019-05-23T08:35:22.150Z,3.20
2019-05-23T08:37:51.106Z,3.27
2019-05-23T08:40:20.235Z,3.40
2019-05-23T08:42:49.740Z,2.93
2019-05-23T08:45:19.450Z,3.60
2019-05-23T08:47:48.435Z,3.20
2019-05-23T08:50:19.415Z,3.00
2019-05-23T08:52:48.376Z,3.20
2019-05-23T08:55:23.343Z,3.67
2019-05-23T08:57:56.070Z,3.40
2019-05-23T09:00:27.716Z,3.97
2019-05-23T09:02:58.811Z,3.15
2019-05-23T09:05:29.767Z,3.37
2019-05-23T09:07:59.234Z,3.50
2019-05-23T09:10:29.971Z,3.80
2019-05-23T09:12:59.901Z,3.10
2019-05-23T09:15:28.775Z,2.80
2019-05-23T09:17:57.914Z,3.83
2019-05-23T09:20:26.932Z,3.10
2019-05-23T09:22:56.067Z,3.02
2019-05-23T09:25:25.177Z,3.83
2019-05-23T09:27:54.541Z,3.25
2019-05-23T09:30:26.353Z,3.22
2019-05-23T09:32:55.214Z,3.20
2019-05-23T09:35:24.726Z,3.20
2019-05-23T09:37:53.609Z,2.90
2019-05-23T09:40:22.595Z,4.93
2019-05-23T09:42:51.498Z,3.00
2019-05-23T09:45:21.048Z,3.10
2019-05-23T09:47:51.308Z,2.98
2019-05-23T09:50:24.752Z,2.87
2019-05-23T09:52:53.713Z,2.83
2019-05-23T09:55:22.895Z,3.30
2019-05-23T09:57:51.817Z,3.67
2019-05-23T10:00:22.628Z,3.45
2019-05-23T10:02:51.736Z,3.17
2019-05-23T10:05:40.226Z,3.30
2019-05-23T10:07:51.263Z,3.35
2019-05-23T10:10:20.972Z,3.30
2019-05-23T10:12:54.407Z,3.27
2019-05-23T10:15:30.844Z,3.40
2019-05-23T10:18:00.921Z,3.37
2019-05-23T10:20:33.962Z,2.93
2019-05-23T10:23:04.171Z,3.65
2019-05-23T10:25:33.160Z,3.22
2019-05-23T10:28:02.051Z,3.27
2019-05-23T10:30:31.251Z,5.53
2019-05-23T10:33:00.139Z,3.30
2019-05-23T10:35:29.347Z,3.27
2019-05-23T10:37:58.230Z,3.40
2019-05-23T10:40:27.940Z,3.20
2019-05-23T10:42:56.830Z,3.58
2019-05-23T10:45:25.817Z,3.13
2019-05-23T10:47:54.734Z,3.45
2019-05-23T10:50:23.916Z,3.20
2019-05-23T10:52:52.922Z,2.70
2019-05-23T10:55:21.698Z,2.95
2019-05-23T10:57:51.810Z,2.75
2019-05-23T11:00:23.062Z,2.77
2019-05-23T11:02:52.010Z,2.83
2019-05-23T11:05:21.014Z,2.80
2019-05-23T11:07:49.999Z,2.95
2019-05-23T11:10:20.651Z,2.50
2019-05-23T11:12:49.671Z,2.40
2019-05-23T11:15:19.280Z,2.70
2019-05-23T11:17:48.513Z,2.35
2019-05-23T11:20:18.801Z,2.80
2019-05-23T11:22:47.691Z,2.40
2019-05-23T11:25:17.912Z,2.00
2019-05-23T11:27:47.627Z,2.20
2019-05-23T11:30:21.635Z,1.95
2019-05-23T11:32:50.526Z,2.15
2019-05-23T11:35:19.429Z,1.90
2019-05-23T11:37:48.441Z,1.60
2019-05-23T11:40:17.306Z,2.00
2019-05-23T11:42:46.193Z,1.80
2019-05-23T11:45:15.768Z,2.00
2019-05-23T11:47:44.897Z,1.65
2019-05-23T11:50:14.175Z,1.30
2019-05-23T11:52:43.287Z,1.50
2019-05-23T11:55:13.825Z,1.86
2019-05-23T11:57:45.072Z,1.50
2019-05-23T12:00:17.849Z,1.96
2019-05-23T12:02:48.383Z,1.70
2019-05-23T12:05:19.106Z,2.17
2019-05-23T12:07:47.904Z,1.55
2019-05-23T12:10:17.885Z,1.77
2019-05-23T12:12:46.814Z,1.50
2019-05-23T12:15:17.347Z,1.47
2019-05-23T12:17:46.622Z,1.67
2019-05-23T12:20:15.951Z,2.15
2019-05-23T12:22:45.319Z,1.62
2019-05-23T12:25:23.547Z,1.65
2019-05-23T12:27:45.609Z,2.02
2019-05-23T12:30:16.158Z,1.84
2019-05-23T12:32:45.216Z,1.77
2019-05-23T12:35:14.996Z,1.70
2019-05-23T12:37:43.919Z,1.98
2019-05-23T12:40:13.835Z,1.92
2019-05-23T12:42:42.723Z,1.67
2019-05-23T12:45:12.719Z,1.58
2019-05-23T12:47:43.168Z,1.75
2019-05-23T12:50:14.216Z,1.70
2019-05-23T12:52:43.102Z,1.40
2019-05-23T12:55:13.550Z,1.70
2019-05-23T12:57:43.140Z,1.12
2019-05-23T13:00:14.185Z,1.22
2019-05-23T13:02:43.171Z,1.60
2019-05-23T13:05:13.088Z,1.66
2019-05-23T13:07:41.980Z,1.90
2019-05-23T13:10:11.719Z,1.48
2019-05-23T13:12:41.391Z,1.35
2019-05-23T13:15:11.266Z,1.14
2019-05-23T13:17:41.025Z,1.40
2019-05-23T13:20:10.435Z,1.27
2019-05-23T13:22:39.322Z,1.20
2019-05-23T13:25:08.902Z,1.74
2019-05-23T13:27:38.036Z,1.62
2019-05-23T13:30:08.534Z,1.60
2019-05-23T13:32:37.649Z,1.47
2019-05-23T13:35:09.665Z,1.25
2019-05-23T13:37:52.485Z,1.02
2019-05-23T13:40:10.482Z,1.42
2019-05-23T13:42:39.796Z,1.40
2019-05-23T13:45:10.337Z,1.02
2019-05-23T13:47:39.598Z,1.32
2019-05-23T13:50:09.893Z,1.08
2019-05-23T13:52:38.917Z,1.30
2019-05-23T13:55:08.407Z,1.10
2019-05-23T13:57:37.725Z,1.22
2019-05-23T14:00:08.458Z,1.30
2019-05-23T14:02:37.553Z,0.98
2019-05-23T14:05:08.049Z,1.10
2019-05-23T14:07:38.633Z,1.20
2019-05-23T14:10:10.165Z,1.02
2019-05-23T14:12:39.465Z,1.07
2019-05-23T14:15:15.019Z,1.26
2019-05-23T14:17:45.440Z,1.20
2019-05-23T14:20:16.219Z,1.00
2019-05-23T14:22:47.471Z,1.30
2019-05-23T14:25:17.233Z,1.30
2019-05-23T14:27:50.836Z,1.33
2019-05-23T14:30:27.718Z,1.12
2019-05-23T14:33:04.223Z,1.10
2019-05-23T14:35:37.694Z,1.10
2019-05-23T14:38:29.194Z,1.10
2019-05-23T14:40:43.629Z,1.30
2019-05-23T14:43:28.832Z,1.10
2019-05-23T14:46:05.607Z,1.00
2019-05-23T14:48:42.500Z,1.07
2019-05-23T14:51:31.647Z,1.16
2019-05-23T14:54:18.363Z,0.95
2019-05-23T14:56:47.354Z,1.20
2019-05-23T14:59:16.766Z,1.27
2019-05-23T15:01:45.854Z,1.10
2019-05-23T15:04:15.134Z,1.13
2019-05-23T15:06:44.047Z,1.30
2019-05-23T15:09:12.936Z,1.07
2019-05-23T15:11:42.137Z,0.90
2019-05-23T15:14:11.843Z,0.96
2019-05-23T15:16:40.843Z,1.00
2019-05-23T15:19:09.941Z,1.07
2019-05-23T15:21:38.826Z,1.00
2019-05-23T15:24:08.538Z,1.10
2019-05-23T15:26:37.440Z,0.82
2019-05-23T15:29:06.625Z,0.80
2019-05-23T15:31:35.515Z,1.15
2019-05-23T15:34:04.617Z,1.17
2019-05-23T15:36:33.510Z,1.15
2019-05-23T15:39:09.403Z,0.82
2019-05-23T15:41:33.028Z,1.00
2019-05-23T15:44:01.934Z,0.85
2019-05-23T15:46:31.116Z,0.97
2019-05-23T15:49:00.827Z,0.82
2019-05-23T15:51:31.483Z,1.00
2019-05-23T15:54:05.161Z,1.00
2019-05-23T15:56:51.563Z,1.00
2019-05-23T15:59:28.142Z,1.00
2019-05-23T16:01:59.229Z,0.90
2019-05-23T16:04:28.172Z,0.80
2019-05-23T16:06:57.262Z,1.00
2019-05-23T16:09:30.171Z,0.60
2019-05-23T16:11:57.715Z,1.10
2019-05-23T16:14:27.004Z,1.00
2019-05-23T16:16:57.440Z,0.88
2019-05-23T16:19:27.239Z,1.03
2019-05-23T16:21:56.944Z,0.82
2019-05-23T16:24:26.616Z,0.93
2019-05-23T16:26:56.927Z,0.90
2019-05-23T16:29:26.707Z,0.85
2019-05-23T16:31:56.031Z,0.85
2019-05-23T16:34:25.306Z,0.83
2019-05-23T16:36:54.306Z,1.00
2019-05-23T16:39:23.353Z,0.90
2019-05-23T16:41:52.295Z,0.93
2019-05-23T16:44:21.186Z,0.90
2019-05-23T16:46:51.507Z,1.20
2019-05-23T16:49:25.265Z,0.90
2019-05-23T16:51:54.615Z,1.10
2019-05-23T16:54:45.747Z,1.02
2019-05-23T16:57:25.578Z,1.10
2019-05-23T16:59:59.999Z,0.90
2019-05-23T17:02:33.392Z,1.03
2019-05-23T17:05:09.956Z,0.72
2019-05-23T17:07:54.523Z,0.75
2019-05-23T17:10:25.051Z,0.93
2019-05-23T17:12:58.451Z,1.40
2019-05-23T17:15:43.973Z,1.30
2019-05-23T17:18:14.535Z,0.93
2019-05-23T17:20:52.156Z,0.70
2019-05-23T17:23:28.934Z,1.10
2019-05-23T17:25:59.313Z,1.17
2019-05-23T17:28:41.980Z,1.00
2019-05-23T17:31:22.543Z,0.90
2019-05-23T17:33:52.353Z,0.90
2019-05-23T17:36:21.653Z,1.30
2019-05-23T17:38:50.544Z,1.00
2019-05-23T17:41:19.906Z,0.88
2019-05-23T17:43:48.842Z,1.10
2019-05-23T17:46:17.729Z,1.25
2019-05-23T17:48:46.728Z,1.22
2019-05-23T17:51:15.921Z,1.23
2019-05-23T17:53:44.811Z,1.30
2019-05-23T17:56:14.290Z,1.30
2019-05-23T17:58:43.623Z,1.50
2019-05-23T18:01:12.524Z,1.07
2019-05-23T18:03:41.502Z,1.12
2019-05-23T18:06:12.126Z,1.30
2019-05-23T18:08:41.436Z,1.15
2019-05-23T18:11:11.442Z,1.68
2019-05-23T18:13:40.544Z,1.40
2019-05-23T18:16:10.674Z,1.38
2019-05-23T18:18:39.872Z,1.92
2019-05-23T18:21:10.297Z,1.30
2019-05-23T18:23:39.499Z,1.37
2019-05-23T18:26:08.796Z,1.70
2019-05-23T18:28:37.693Z,1.40
2019-05-23T18:31:11.963Z,1.30
2019-05-23T18:33:42.537Z,1.42
2019-05-23T18:36:12.552Z,1.48
2019-05-23T18:38:41.544Z,2.00
2019-05-23T18:41:13.202Z,1.88
2019-05-23T18:43:43.423Z,1.57
2019-05-23T18:46:14.264Z,1.85
2019-05-23T18:48:43.051Z,1.70
2019-05-23T18:51:12.006Z,2.02
2019-05-23T18:53:40.833Z,1.72
2019-05-23T18:56:10.648Z,2.10
2019-05-23T18:58:39.536Z,1.50
2019-05-23T19:01:10.320Z,1.80
2019-05-23T19:03:39.922Z,1.55
2019-05-23T19:06:09.589Z,2.18
2019-05-23T19:08:38.810Z,1.87
2019-05-23T19:11:20.279Z,1.75
2019-05-23T19:13:40.259Z,2.30
2019-05-23T19:16:09.770Z,1.77
2019-05-23T19:18:38.931Z,1.87
2019-05-23T19:21:10.206Z,1.80
2019-05-23T19:23:39.921Z,2.00
2019-05-23T19:26:10.040Z,1.58
2019-05-23T19:28:39.646Z,1.92
2019-05-23T19:31:09.375Z,1.90
2019-05-23T19:33:38.484Z,1.70
2019-05-23T19:36:10.017Z,1.98
2019-05-23T19:38:39.227Z,1.98
2019-05-23T19:41:10.953Z,2.06
2019-05-23T19:43:40.469Z,1.70
2019-05-23T19:46:10.282Z,2.20
2019-05-23T19:48:41.372Z,1.95
2019-05-23T19:51:12.064Z,1.40
2019-05-23T19:53:42.185Z,1.47
2019-05-23T19:56:12.110Z,2.06
2019-05-23T19:58:42.420Z,1.90
2019-05-23T20:01:12.237Z,1.60
2019-05-23T20:03:41.404Z,1.70
2019-05-23T20:06:10.937Z,1.78
2019-05-23T20:08:40.625Z,1.80
2019-05-23T20:11:11.644Z,1.92
2019-05-23T20:13:41.398Z,1.82
2019-05-23T20:16:11.103Z,1.85
2019-05-23T20:18:40.101Z,1.70
2019-05-23T20:21:09.607Z,1.94
2019-05-23T20:23:38.604Z,1.70
2019-05-23T20:26:08.828Z,2.08
2019-05-23T20:28:40.011Z,1.80
2019-05-23T20:31:09.642Z,1.60
2019-05-23T20:33:40.006Z,1.80
2019-05-23T20:36:12.223Z,1.60
2019-05-23T20:38:41.476Z,2.05
2019-05-23T20:41:10.980Z,1.62
2019-05-23T20:43:39.979Z,1.80
2019-05-23T20:46:09.837Z,1.88
2019-05-23T20:48:39.193Z,1.52
2019-05-23T20:51:09.523Z,1.82
2019-05-23T20:53:38.925Z,1.75
2019-05-23T20:56:08.529Z,2.10
2019-05-23T20:58:37.519Z,1.47
2019-05-23T21:01:09.311Z,1.60
2019-05-23T21:03:39.709Z,1.95
2019-05-23T21:06:08.933Z,1.85
2019-05-23T21:08:37.896Z,1.72
2019-05-23T21:11:07.609Z,1.78
2019-05-23T21:13:36.602Z,1.80
2019-05-23T21:16:06.220Z,1.52
2019-05-23T21:18:35.102Z,1.98
2019-05-23T21:21:04.297Z,1.60
2019-05-23T21:23:33.187Z,1.57
2019-05-23T21:26:03.614Z,1.95
2019-05-23T21:28:32.609Z,1.50
2019-05-23T21:31:01.605Z,1.42
2019-05-23T21:33:30.700Z,1.83
2019-05-23T21:35:59.697Z,1.40
2019-05-23T21:38:28.706Z,2.00
2019-05-23T21:40:57.578Z,1.60
2019-05-23T21:43:26.581Z,1.90
2019-05-23T21:45:55.675Z,1.45
2019-05-23T21:48:24.659Z,2.15
2019-05-23T21:50:53.453Z,1.90
2019-05-23T21:53:22.348Z,1.63
2019-05-23T21:55:51.237Z,2.00
2019-05-23T21:58:20.037Z,1.80
2019-05-23T22:01:08.439Z,1.77
2019-05-23T22:03:48.933Z,2.42
2019-05-23T22:06:22.335Z,1.60
2019-05-23T22:08:51.737Z,2.02
2019-05-23T22:11:20.726Z,1.60
2019-05-23T22:13:49.617Z,2.60
2019-05-23T22:16:19.208Z,1.92
2019-05-23T22:18:48.116Z,2.10
2019-05-23T22:21:17.417Z,2.17
2019-05-23T22:23:46.457Z,1.72
2019-05-23T22:26:15.404Z,1.97
2019-05-23T22:28:44.602Z,2.10
2019-05-23T22:31:13.597Z,2.17
2019-05-23T22:33:47.077Z,2.00
2019-05-23T22:36:17.221Z,1.70
2019-05-23T22:38:46.107Z,2.10
2019-05-23T22:41:15.103Z,2.02
2019-05-23T22:43:43.991Z,1.60
2019-05-23T22:46:13.086Z,1.67
2019-05-23T22:48:41.876Z,1.80
2019-05-23T22:51:11.382Z,2.06
2019-05-23T22:53:40.273Z,1.87
2019-05-23T22:56:09.881Z,1.94
2019-05-23T22:58:38.777Z,2.13
2019-05-23T23:01:08.458Z,2.00
2019-05-23T23:03:37.469Z,2.00
2019-05-23T23:06:06.599Z,1.80
2019-05-23T23:08:35.463Z,2.10
2019-05-23T23:11:04.354Z,2.05
2019-05-23T23:13:38.486Z,1.90
2019-05-23T23:16:04.493Z,1.90
2019-05-23T23:18:33.402Z,1.92
2019-05-23T23:21:02.175Z,1.90
2019-05-23T23:23:31.069Z,2.13
2019-05-23T23:25:59.955Z,1.70
2019-05-23T23:28:28.849Z,1.80
2019-05-23T23:30:57.839Z,1.80
2019-05-23T23:33:26.729Z,2.00
2019-05-23T23:35:55.619Z,2.12
2019-05-23T23:38:24.513Z,2.00
2019-05-23T23:40:53.303Z,1.83
2019-05-23T23:43:22.196Z,1.77
2019-05-23T23:46:09.033Z,1.95
2019-05-23T23:48:55.508Z,1.95
2019-05-23T23:51:42.428Z,1.80
2019-05-23T23:54:30.270Z,1.62
2019-05-23T23:57:17.068Z,2.00
2019-05-23T23:59:45.038Z,1.90
